createdAt,value
2018-02-17T00:00:23.089Z,30.77
2018-02-17T00:02:51.116Z,28.07
2018-02-17T00:05:19.400Z,26.23
2018-02-17T00:07:47.675Z,30.00
2018-02-17T00:10:15.974Z,23.10
2018-02-17T00:12:45.040Z,21.30
2018-02-17T00:15:13.291Z,20.23
2018-02-17T00:17:41.556Z,19.30
2018-02-17T00:20:09.932Z,20.03
2018-02-17T00:22:38.179Z,17.93
2018-02-17T00:25:06.535Z,16.33
2018-02-17T00:27:35.552Z,18.67
2018-02-17T00:30:03.820Z,16.77
2018-02-17T00:32:32.964Z,17.13
2018-02-17T00:35:01.219Z,17.27
2018-02-17T00:37:29.562Z,17.77
2018-02-17T00:39:58.606Z,16.47
2018-02-17T00:42:27.232Z,17.73
2018-02-17T00:44:57.053Z,15.53
2018-02-17T00:47:25.269Z,15.97
2018-02-17T00:49:53.542Z,16.57
2018-02-17T00:52:21.830Z,15.90
2018-02-17T00:54:50.074Z,15.07
2018-02-17T00:57:18.363Z,15.73
2018-02-17T00:59:46.646Z,15.53
2018-02-17T01:02:14.918Z,15.00
2018-02-17T01:04:43.174Z,15.93
2018-02-17T01:07:11.463Z,14.83
2018-02-17T01:09:39.713Z,14.50
2018-02-17T01:12:08.838Z,13.80
2018-02-17T01:14:37.103Z,12.77
2018-02-17T01:17:05.372Z,12.90
2018-02-17T01:19:33.639Z,13.33
2018-02-17T01:22:02.664Z,12.80
2018-02-17T01:24:30.955Z,13.10
2018-02-17T01:26:59.312Z,12.70
2018-02-17T01:29:27.574Z,12.37
2018-02-17T01:31:55.840Z,13.97
2018-02-17T01:34:25.647Z,12.60
2018-02-17T01:36:54.660Z,12.10
2018-02-17T01:39:22.941Z,13.97
2018-02-17T01:41:51.295Z,12.70
2018-02-17T01:44:20.323Z,14.03
2018-02-17T01:46:48.654Z,13.53
2018-02-17T01:49:16.900Z,11.70
2018-02-17T01:51:45.266Z,12.90
2018-02-17T01:54:13.528Z,12.50
2018-02-17T01:56:41.778Z,13.57
2018-02-17T01:59:10.059Z,12.27
2018-02-17T02:01:38.353Z,12.53
2018-02-17T02:04:06.620Z,12.77
2018-02-17T02:06:34.871Z,13.10
2018-02-17T02:09:04.005Z,12.50
2018-02-17T02:11:32.260Z,13.17
2018-02-17T02:14:00.507Z,13.33
2018-02-17T02:16:29.561Z,13.43
2018-02-17T02:18:57.855Z,11.50
2018-02-17T02:21:26.346Z,12.90
2018-02-17T02:23:55.363Z,12.43
2018-02-17T02:26:24.487Z,13.20
2018-02-17T02:28:52.815Z,12.67
2018-02-17T02:31:21.156Z,13.47
2018-02-17T02:33:49.420Z,12.30
2018-02-17T02:36:17.686Z,12.80
2018-02-17T02:38:45.947Z,12.20
2018-02-17T02:41:14.330Z,12.27
2018-02-17T02:43:43.006Z,13.40
2018-02-17T02:46:11.270Z,14.23
2018-02-17T02:48:40.284Z,13.23
2018-02-17T02:51:08.552Z,14.17
2018-02-17T02:53:36.810Z,13.87
2018-02-17T02:56:05.819Z,12.90
2018-02-17T02:58:34.263Z,14.23
2018-02-17T03:01:02.509Z,13.40
2018-02-17T03:03:30.927Z,14.97
2018-02-17T03:05:59.161Z,14.20
2018-02-17T03:08:27.515Z,15.07
2018-02-17T03:10:55.796Z,14.97
2018-02-17T03:13:24.055Z,12.13
2018-02-17T03:15:52.455Z,14.00
2018-02-17T03:18:20.734Z,12.77
2018-02-17T03:20:48.993Z,14.43
2018-02-17T03:23:17.263Z,13.20
2018-02-17T03:25:45.580Z,14.23
2018-02-17T03:28:15.362Z,14.80
2018-02-17T03:30:43.621Z,14.83
2018-02-17T03:33:11.895Z,15.33
2018-02-17T03:35:40.306Z,14.10
2018-02-17T03:38:08.580Z,13.30
2018-02-17T03:40:36.894Z,13.87
2018-02-17T03:43:05.923Z,14.47
2018-02-17T03:45:34.190Z,14.73
2018-02-17T03:48:02.465Z,13.53
2018-02-17T03:50:30.737Z,20.37
2018-02-17T03:52:58.975Z,32.80
2018-02-17T03:55:27.999Z,14.20
2018-02-17T03:57:56.254Z,14.57
2018-02-17T04:00:25.268Z,14.60
2018-02-17T04:02:53.516Z,15.07
2018-02-17T04:05:22.804Z,16.90
2018-02-17T04:07:51.171Z,14.50
2018-02-17T04:10:19.423Z,14.60
2018-02-17T04:12:47.699Z,14.20
2018-02-17T04:15:16.296Z,14.07
2018-02-17T04:17:44.647Z,13.90
2018-02-17T04:20:12.906Z,13.83
2018-02-17T04:22:41.179Z,14.10
2018-02-17T04:25:09.447Z,12.93
2018-02-17T04:27:37.710Z,13.20
2018-02-17T04:30:06.732Z,13.57
2018-02-17T04:32:34.977Z,13.53
2018-02-17T04:35:03.235Z,14.33
2018-02-17T04:37:32.240Z,13.13
2018-02-17T04:40:00.496Z,13.77
2018-02-17T04:42:29.531Z,13.43
2018-02-17T04:44:57.886Z,14.83
2018-02-17T04:47:26.339Z,13.33
2018-02-17T04:49:55.582Z,13.57
2018-02-17T04:52:24.010Z,13.27
2018-02-17T04:54:52.252Z,14.43
2018-02-17T04:57:20.572Z,14.63
2018-02-17T04:59:49.579Z,14.23
2018-02-17T05:02:17.866Z,13.70
2018-02-17T05:04:46.127Z,13.53
2018-02-17T05:07:15.242Z,13.03
2018-02-17T05:09:43.511Z,13.97
2018-02-17T05:12:11.750Z,14.47
2018-02-17T05:14:40.108Z,13.57
2018-02-17T05:17:08.338Z,14.37
2018-02-17T05:19:36.603Z,14.13
2018-02-17T05:22:04.866Z,14.67
2018-02-17T05:24:33.128Z,13.37
2018-02-17T05:27:01.600Z,13.23
2018-02-17T05:29:29.939Z,13.57
2018-02-17T05:31:58.194Z,13.43
2018-02-17T05:34:26.527Z,14.17
2018-02-17T05:36:55.554Z,15.10
2018-02-17T05:39:23.938Z,15.53
2018-02-17T05:41:52.399Z,15.13
2018-02-17T05:44:21.604Z,13.60
2018-02-17T05:46:50.580Z,14.70
2018-02-17T05:49:18.943Z,14.27
2018-02-17T05:51:48.747Z,14.30
2018-02-17T05:54:17.015Z,14.57
2018-02-17T05:56:45.342Z,15.93
2018-02-17T05:59:13.667Z,15.90
2018-02-17T06:01:41.976Z,16.10
2018-02-17T06:04:10.227Z,15.50
2018-02-17T06:06:39.514Z,15.57
2018-02-17T06:09:07.759Z,15.93
2018-02-17T06:11:36.097Z,17.37
2018-02-17T06:14:04.369Z,18.70
2018-02-17T06:16:32.678Z,18.00
2018-02-17T06:19:01.036Z,16.60
2018-02-17T06:21:29.365Z,15.90
2018-02-17T06:23:57.785Z,17.27
2018-02-17T06:26:26.047Z,16.13
2018-02-17T06:28:54.297Z,16.03
2018-02-17T06:31:23.332Z,15.00
2018-02-17T06:33:51.611Z,16.77
2018-02-17T06:36:19.975Z,16.80
2018-02-17T06:38:48.251Z,17.43
2018-02-17T06:41:16.506Z,17.23
2018-02-17T06:43:44.772Z,16.90
2018-02-17T06:46:13.799Z,18.10
2018-02-17T06:48:42.138Z,17.40
2018-02-17T06:51:11.148Z,17.73
2018-02-17T06:53:39.399Z,16.93
2018-02-17T06:56:08.436Z,17.43
2018-02-17T06:58:36.915Z,17.07
2018-02-17T07:01:05.148Z,17.23
2018-02-17T07:03:34.179Z,16.97
2018-02-17T07:06:02.434Z,17.67
2018-02-17T07:08:30.732Z,18.37
2018-02-17T07:10:58.967Z,17.93
2018-02-17T07:13:28.019Z,17.77
2018-02-17T07:15:56.425Z,18.77
2018-02-17T07:18:24.643Z,16.37
2018-02-17T07:20:52.915Z,16.97
2018-02-17T07:23:21.267Z,16.87
2018-02-17T07:25:49.551Z,17.27
2018-02-17T07:28:17.831Z,16.83
2018-02-17T07:30:46.103Z,17.10
2018-02-17T07:33:14.372Z,17.57
2018-02-17T07:35:43.394Z,18.53
2018-02-17T07:38:11.669Z,18.17
2018-02-17T07:40:39.918Z,19.00
2018-02-17T07:43:09.079Z,17.77
2018-02-17T07:45:37.363Z,18.60
2018-02-17T07:48:05.612Z,17.77
2018-02-17T07:50:33.898Z,18.23
2018-02-17T07:53:02.187Z,18.67
2018-02-17T07:55:30.550Z,17.57
2018-02-17T07:57:58.818Z,19.57
2018-02-17T08:00:27.137Z,21.37
2018-02-17T08:02:55.409Z,21.80
2018-02-17T08:05:25.135Z,19.63
2018-02-17T08:07:53.422Z,20.03
2018-02-17T08:10:21.667Z,20.37
2018-02-17T08:12:50.696Z,21.57
2018-02-17T08:15:18.963Z,22.80
2018-02-17T08:17:47.252Z,21.47
2018-02-17T08:20:15.500Z,21.53
2018-02-17T08:22:43.761Z,21.50
2018-02-17T08:25:12.794Z,20.40
2018-02-17T08:27:41.081Z,19.43
2018-02-17T08:30:09.386Z,19.07
2018-02-17T08:32:37.640Z,18.50
2018-02-17T08:35:05.915Z,17.93
2018-02-17T08:37:34.275Z,18.97
2018-02-17T08:40:02.584Z,17.47
2018-02-17T08:42:30.843Z,19.00
2018-02-17T08:44:59.107Z,18.40
2018-02-17T08:47:27.464Z,17.77
2018-02-17T08:49:55.728Z,17.97
2018-02-17T08:52:23.983Z,18.77
2018-02-17T08:54:52.264Z,16.70
2018-02-17T08:57:20.500Z,16.73
2018-02-17T08:59:48.791Z,17.80
2018-02-17T09:02:17.939Z,17.97
2018-02-17T09:04:46.305Z,18.43
2018-02-17T09:07:14.573Z,19.13
2018-02-17T09:09:42.887Z,19.13
2018-02-17T09:12:11.167Z,18.10
2018-02-17T09:14:39.419Z,18.83
2018-02-17T09:17:07.723Z,19.07
2018-02-17T09:19:36.151Z,18.23
2018-02-17T09:22:04.447Z,18.57
2018-02-17T09:24:32.736Z,18.63
2018-02-17T09:27:01.811Z,18.53
2018-02-17T09:29:30.843Z,19.53
2018-02-17T09:31:59.105Z,17.57
2018-02-17T09:34:27.497Z,18.90
2018-02-17T09:36:55.760Z,18.73
2018-02-17T09:39:24.011Z,18.20
2018-02-17T09:41:54.528Z,18.37
2018-02-17T09:44:22.844Z,18.17
2018-02-17T09:46:51.124Z,17.17
2018-02-17T09:49:19.391Z,18.27
2018-02-17T09:51:47.672Z,18.80
2018-02-17T09:54:15.947Z,19.97
2018-02-17T09:56:44.195Z,18.50
2018-02-17T09:59:12.469Z,18.03
2018-02-17T10:01:40.732Z,18.77
2018-02-17T10:04:08.996Z,17.47
2018-02-17T10:06:37.268Z,19.00
2018-02-17T10:09:05.563Z,18.33
2018-02-17T10:11:33.844Z,19.37
2018-02-17T10:14:02.116Z,18.27
2018-02-17T10:16:30.378Z,16.80
2018-02-17T10:18:58.647Z,19.03
2018-02-17T10:21:26.945Z,17.40
2018-02-17T10:23:55.195Z,16.67
2018-02-17T10:26:23.465Z,17.57
2018-02-17T10:28:51.752Z,16.37
2018-02-17T10:31:20.008Z,16.17
2018-02-17T10:33:48.322Z,15.67
2018-02-17T10:36:16.675Z,17.03
2018-02-17T10:38:44.965Z,16.37
2018-02-17T10:41:13.260Z,16.23
2018-02-17T10:43:42.508Z,16.63
2018-02-17T10:46:11.516Z,17.17
2018-02-17T10:48:39.751Z,15.67
2018-02-17T10:51:08.798Z,16.00
2018-02-17T10:53:37.163Z,16.13
2018-02-17T10:56:05.475Z,16.30
2018-02-17T10:58:34.683Z,16.50
2018-02-17T11:01:03.010Z,15.97
2018-02-17T11:03:31.274Z,14.90
2018-02-17T11:05:59.543Z,15.87
2018-02-17T11:08:27.833Z,15.07
2018-02-17T11:10:56.055Z,14.20
2018-02-17T11:13:25.097Z,14.47
2018-02-17T11:15:53.379Z,13.77
2018-02-17T11:18:21.639Z,14.80
2018-02-17T11:20:49.900Z,14.40
2018-02-17T11:23:18.200Z,14.73
2018-02-17T11:25:46.486Z,14.77
2018-02-17T11:28:14.814Z,15.07
2018-02-17T11:30:43.856Z,14.03
2018-02-17T11:33:12.087Z,13.80
2018-02-17T11:35:40.438Z,13.47
2018-02-17T11:38:08.792Z,13.97
2018-02-17T11:40:37.067Z,15.30
2018-02-17T11:43:05.368Z,14.33
2018-02-17T11:45:33.614Z,15.43
2018-02-17T11:48:01.853Z,14.33
2018-02-17T11:50:30.108Z,15.30
2018-02-17T11:52:58.452Z,14.53
2018-02-17T11:55:27.520Z,14.30
2018-02-17T11:57:55.801Z,14.17
2018-02-17T12:00:24.056Z,14.93
2018-02-17T12:02:52.355Z,14.27
2018-02-17T12:05:20.631Z,14.97
2018-02-17T12:07:48.941Z,15.10
2018-02-17T12:10:17.239Z,13.43
2018-02-17T12:12:46.275Z,14.07
2018-02-17T12:15:14.539Z,13.83
2018-02-17T12:17:42.809Z,14.50
2018-02-17T12:20:11.053Z,13.33
2018-02-17T12:22:39.393Z,12.67
2018-02-17T12:25:08.423Z,12.23
2018-02-17T12:27:36.717Z,14.33
2018-02-17T12:30:04.986Z,11.97
2018-02-17T12:32:33.279Z,12.10
2018-02-17T12:35:01.588Z,12.67
2018-02-17T12:37:29.938Z,12.77
2018-02-17T12:39:58.234Z,12.40
2018-02-17T12:42:26.730Z,14.03
2018-02-17T12:44:55.754Z,13.43
2018-02-17T12:47:24.056Z,12.63
2018-02-17T12:49:52.369Z,12.10
2018-02-17T12:52:20.646Z,12.57
2018-02-17T12:54:48.935Z,12.47
2018-02-17T12:57:17.363Z,12.77
2018-02-17T12:59:45.707Z,12.23
2018-02-17T13:02:14.080Z,12.23
2018-02-17T13:04:42.355Z,12.77
2018-02-17T13:07:11.412Z,12.37
2018-02-17T13:09:39.747Z,12.77
2018-02-17T13:12:08.141Z,12.03
2018-02-17T13:14:36.388Z,13.13
2018-02-17T13:17:04.771Z,12.57
2018-02-17T13:19:33.258Z,12.03
2018-02-17T13:22:01.593Z,12.20
2018-02-17T13:24:32.820Z,12.17
2018-02-17T13:27:01.876Z,12.53
2018-02-17T13:29:30.322Z,12.33
2018-02-17T13:31:59.332Z,12.00
2018-02-17T13:34:27.659Z,11.93
2018-02-17T13:36:55.928Z,13.63
2018-02-17T13:39:24.342Z,13.87
2018-02-17T13:41:53.416Z,12.30
2018-02-17T13:44:21.794Z,12.03
2018-02-17T13:46:50.032Z,11.83
2018-02-17T13:49:18.286Z,12.67
2018-02-17T13:51:46.641Z,13.17
2018-02-17T13:54:14.967Z,12.93
2018-02-17T13:56:43.283Z,11.73
2018-02-17T13:59:12.340Z,11.60
2018-02-17T14:01:40.622Z,13.57
2018-02-17T14:04:08.914Z,12.63
2018-02-17T14:06:37.179Z,11.90
2018-02-17T14:09:05.467Z,12.07
2018-02-17T14:11:33.709Z,12.27
2018-02-17T14:14:01.967Z,12.67
2018-02-17T14:16:30.215Z,13.40
2018-02-17T14:18:58.563Z,12.93
2018-02-17T14:21:26.806Z,13.10
2018-02-17T14:23:55.354Z,14.83
2018-02-17T14:26:23.616Z,14.50
2018-02-17T14:28:52.708Z,13.83
2018-02-17T14:31:20.936Z,14.83
2018-02-17T14:33:49.356Z,13.87
2018-02-17T14:36:18.399Z,13.83
2018-02-17T14:38:46.667Z,13.80
2018-02-17T14:41:15.928Z,14.03
2018-02-17T14:43:44.285Z,13.97
2018-02-17T14:46:12.546Z,13.17
2018-02-17T14:48:40.815Z,14.80
2018-02-17T14:51:09.218Z,14.47
2018-02-17T14:53:38.259Z,15.23
2018-02-17T14:56:06.535Z,15.00
2018-02-17T14:58:34.907Z,16.07
2018-02-17T15:01:03.226Z,15.60
2018-02-17T15:03:31.468Z,13.80
2018-02-17T15:05:59.830Z,14.90
2018-02-17T15:08:28.300Z,14.47
2018-02-17T15:10:56.695Z,14.63
2018-02-17T15:13:24.967Z,14.17
2018-02-17T15:15:53.226Z,14.10
2018-02-17T15:18:21.538Z,14.20
2018-02-17T15:20:49.816Z,13.30
2018-02-17T15:23:18.122Z,13.20
2018-02-17T15:25:46.351Z,12.67
2018-02-17T15:28:14.633Z,12.50
2018-02-17T15:30:42.930Z,12.13
2018-02-17T15:33:11.183Z,12.43
2018-02-17T15:35:39.487Z,12.23
2018-02-17T15:38:07.751Z,11.17
2018-02-17T15:40:36.043Z,12.27
2018-02-17T15:43:04.455Z,11.97
2018-02-17T15:45:32.703Z,12.07
2018-02-17T15:48:01.035Z,12.77
2018-02-17T15:50:29.326Z,12.53
2018-02-17T15:52:59.113Z,12.07
2018-02-17T15:55:27.399Z,11.70
2018-02-17T15:57:55.667Z,12.67
2018-02-17T16:00:23.958Z,12.40
2018-02-17T16:02:52.253Z,11.87
2018-02-17T16:05:20.528Z,11.60
2018-02-17T16:07:48.895Z,12.07
2018-02-17T16:10:17.155Z,12.73
2018-02-17T16:12:45.430Z,12.47
2018-02-17T16:15:13.704Z,11.97
2018-02-17T16:17:41.965Z,12.10
2018-02-17T16:20:10.299Z,11.60
2018-02-17T16:22:39.398Z,11.50
2018-02-17T16:25:07.690Z,12.63
2018-02-17T16:27:35.969Z,12.50
2018-02-17T16:30:04.200Z,13.70
2018-02-17T16:32:33.240Z,12.57
2018-02-17T16:35:01.579Z,12.93
2018-02-17T16:37:30.691Z,13.17
2018-02-17T16:39:59.761Z,13.17
2018-02-17T16:42:28.239Z,14.57
2018-02-17T16:44:56.562Z,17.00
2018-02-17T16:47:24.820Z,17.83
2018-02-17T16:49:53.094Z,16.20
2018-02-17T16:52:21.404Z,20.37
2018-02-17T16:54:49.773Z,16.03
2018-02-17T16:57:18.079Z,17.30
2018-02-17T16:59:46.336Z,17.80
2018-02-17T17:02:14.657Z,17.03
2018-02-17T17:04:42.846Z,17.47
2018-02-17T17:07:11.596Z,19.87
2018-02-17T17:09:39.837Z,19.77
2018-02-17T17:12:08.120Z,19.60
2018-02-17T17:14:36.367Z,19.60
2018-02-17T17:17:04.639Z,21.17
2018-02-17T17:19:32.989Z,20.83
2018-02-17T17:22:01.991Z,23.87
2018-02-17T17:24:30.266Z,25.27
2018-02-17T17:26:59.280Z,22.00
2018-02-17T17:29:27.600Z,21.13
2018-02-17T17:31:56.657Z,21.87
2018-02-17T17:34:25.645Z,29.73
2018-02-17T17:36:53.938Z,27.80
2018-02-17T17:39:22.215Z,24.60
2018-02-17T17:41:50.556Z,26.07
2018-02-17T17:44:18.811Z,23.03
2018-02-17T17:46:47.114Z,28.03
2018-02-17T17:49:15.352Z,26.47
2018-02-17T17:51:43.682Z,25.70
2018-02-17T17:54:11.958Z,28.13
2018-02-17T17:56:40.259Z,26.83
2018-02-17T17:59:08.533Z,31.40
2018-02-17T18:01:36.932Z,34.17
2018-02-17T18:04:05.225Z,26.90
2018-02-17T18:06:33.483Z,28.10
2018-02-17T18:09:02.529Z,30.63
2018-02-17T18:11:30.844Z,29.03
2018-02-17T18:13:59.071Z,53.00
2018-02-17T18:16:27.385Z,103.30
2018-02-17T18:18:55.687Z,42.13
2018-02-17T18:21:24.715Z,29.37
2018-02-17T18:23:52.973Z,45.77
2018-02-17T18:26:21.271Z,50.77
2018-02-17T18:28:49.531Z,92.57
2018-02-17T18:31:17.803Z,49.67
2018-02-17T18:33:46.136Z,29.10
2018-02-17T18:36:14.396Z,26.40
2018-02-17T18:38:42.784Z,31.40
2018-02-17T18:41:11.036Z,78.40
2018-02-17T18:43:39.303Z,56.80
2018-02-17T18:46:07.643Z,87.77
2018-02-17T18:48:36.019Z,66.77
2018-02-17T18:51:04.289Z,115.50
2018-02-17T18:53:32.638Z,137.63
2018-02-17T18:56:00.904Z,79.57
2018-02-17T18:58:29.185Z,49.27
2018-02-17T19:00:57.511Z,42.57
2018-02-17T19:03:25.772Z,41.90
2018-02-17T19:05:54.184Z,37.93
2018-02-17T19:08:22.492Z,32.13
2018-02-17T19:10:50.785Z,87.23
2018-02-17T19:13:19.807Z,73.60
2018-02-17T19:15:48.206Z,134.37
2018-02-17T19:18:16.486Z,61.10
2018-02-17T19:20:44.785Z,29.73
2018-02-17T19:23:13.928Z,32.27
2018-02-17T19:25:42.212Z,24.73
2018-02-17T19:28:10.563Z,23.80
2018-02-17T19:30:39.624Z,24.83
2018-02-17T19:33:07.887Z,34.10
2018-02-17T19:35:36.178Z,36.93
2018-02-17T19:38:04.459Z,33.87
2018-02-17T19:40:32.707Z,31.63
2018-02-17T19:43:01.118Z,28.60
2018-02-17T19:45:30.158Z,26.20
2018-02-17T19:47:58.419Z,25.10
2018-02-17T19:50:26.714Z,26.73
2018-02-17T19:52:56.507Z,33.93
2018-02-17T19:55:24.755Z,30.87
2018-02-17T19:57:53.814Z,28.00
2018-02-17T20:00:22.156Z,25.63
2018-02-17T20:02:50.447Z,26.57
2018-02-17T20:05:18.727Z,26.77
2018-02-17T20:07:47.011Z,27.47
2018-02-17T20:10:15.419Z,30.23
2018-02-17T20:12:44.434Z,33.70
2018-02-17T20:15:12.718Z,28.37
2018-02-17T20:17:41.028Z,30.20
2018-02-17T20:20:09.299Z,34.13
2018-02-17T20:22:37.601Z,35.60
2018-02-17T20:25:06.647Z,29.10
2018-02-17T20:27:34.904Z,29.03
2018-02-17T20:30:03.289Z,28.43
2018-02-17T20:32:31.546Z,28.60
2018-02-17T20:34:59.803Z,33.27
2018-02-17T20:37:28.848Z,34.73
2018-02-17T20:39:57.131Z,32.27
2018-02-17T20:42:25.367Z,31.47
2018-02-17T20:44:53.767Z,31.37
2018-02-17T20:47:22.063Z,31.77
2018-02-17T20:49:50.334Z,32.13
2018-02-17T20:52:18.674Z,31.93
2018-02-17T20:54:47.115Z,31.27
2018-02-17T20:57:15.391Z,30.27
2018-02-17T20:59:44.408Z,29.87
2018-02-17T21:02:13.435Z,29.53
2018-02-17T21:04:42.058Z,30.07
2018-02-17T21:07:10.291Z,30.63
2018-02-17T21:09:38.582Z,29.37
2018-02-17T21:12:07.091Z,31.17
2018-02-17T21:14:36.134Z,29.80
2018-02-17T22:42:45.047Z,31.43
2018-02-17T22:45:13.311Z,31.00
2018-02-17T22:47:41.579Z,33.87
2018-02-17T22:50:10.623Z,34.87
2018-02-17T22:52:38.942Z,33.20
2018-02-17T22:55:07.219Z,33.00
2018-02-17T22:57:36.251Z,33.43
2018-02-17T23:00:04.512Z,32.67
2018-02-17T23:02:32.924Z,33.03
2018-02-17T23:05:01.200Z,33.47
2018-02-17T23:07:29.463Z,31.50
2018-02-17T23:09:57.760Z,33.83
2018-02-17T23:12:26.038Z,34.20
2018-02-17T23:14:54.331Z,32.73
2018-02-17T23:17:22.640Z,31.87
2018-02-17T23:19:51.104Z,34.17
2018-02-17T23:22:19.344Z,31.73
2018-02-17T23:24:47.700Z,31.70
2018-02-17T23:27:16.023Z,29.60
2018-02-17T23:29:45.780Z,29.97
2018-02-17T23:32:14.057Z,30.97
2018-02-17T23:34:42.350Z,28.93
2018-02-17T23:37:10.604Z,28.83
2018-02-17T23:39:38.948Z,28.83
2018-02-17T23:42:07.212Z,28.43
2018-02-17T23:44:35.683Z,27.83
2018-02-17T23:47:04.727Z,28.60
2018-02-17T23:49:32.985Z,29.50
2018-02-17T23:52:01.257Z,28.90
2018-02-17T23:54:29.556Z,28.27
2018-02-17T23:56:57.828Z,29.23
2018-02-17T23:59:27.188Z,29.77
